Terminal Aerodrome Forecast
Issued by NWS

Current Version | Previous Version | Graphics & Text | Print | Product List | Glossary On
Versions: 1 2 3 4 5 6 7 8 9 10 11 12 13 14 15 16 17 18 19 20 21 22 23 24 25 26 27 28 29 30
000
FTUS41 KILN 281500 AAC
TAFLCK
TAF AMD
KLCK 281503Z 2815/2912 30015G22KT P6SM BKN028 OVC035
     FM281800 32012KT P6SM SCT250
     FM290500 18003KT P6SM FEW050 SCT250=

USA.gov is the U.S. government's official web portal to all federal, state and local government web resources and services.